Time;durP1;ratioP1;P1;durP2;ratioP2;P2;SDS_P1;SDS_P2;PMS_P1;PMS_P2;Temp;Humidity;BMP_temperature;BMP_pressure;BME280_temperature;BME280_humidity;BME280_pressure;Samples;Min_cycle;Max_cycle;Signal;HPM_P1;HPM_P2
2022/01/08 00:04:39;;;;;;;33.50;15.53;;;;;;;0.51;100.00;100167.78;3574769;81;98090;-84
2022/01/08 00:09:40;;;;;;;33.80;17.30;;;;;;;0.52;100.00;100169.95;3521219;81;99460;-85
2022/01/08 00:14:41;;;;;;;32.23;16.73;;;;;;;0.54;100.00;100157.69;3572896;81;98991;-85
2022/01/08 00:19:42;;;;;;;32.70;16.13;;;;;;;0.48;100.00;100147.33;3631619;80;98984;-85
2022/01/08 00:24:44;;;;;;;33.40;16.53;;;;;;;0.56;100.00;100156.80;3633447;78;99342;-86
2022/01/08 00:29:45;;;;;;;34.07;17.67;;;;;;;0.57;100.00;100152.20;3621904;80;98976;-85
2022/01/08 00:34:46;;;;;;;33.83;18.03;;;;;;;0.57;100.00;100155.72;3611938;80;98805;-85
2022/01/08 00:39:48;;;;;;;30.63;15.10;;;;;;;0.58;100.00;100158.66;3569421;78;98812;-86
2022/01/08 00:44:49;;;;;;;29.73;16.07;;;;;;;0.59;100.00;100154.83;3566007;80;99015;-87
2022/01/08 00:49:50;;;;;;;29.57;16.00;;;;;;;0.61;100.00;100151.23;3556905;81;99366;-85
2022/01/08 00:54:51;;;;;;;27.37;16.07;;;;;;;0.62;100.00;100150.69;3583483;81;99410;-84
2022/01/08 00:59:52;;;;;;;31.40;16.50;;;;;;;0.62;100.00;100155.53;3579114;81;99144;-85
2022/01/08 01:04:53;;;;;;;31.10;17.02;;;;;;;0.62;100.00;100140.64;3562800;81;99223;-85
2022/01/08 01:09:54;;;;;;;30.00;15.30;;;;;;;0.63;100.00;100141.45;3548214;81;98913;-87
2022/01/08 01:14:55;;;;;;;30.88;15.83;;;;;;;0.62;100.00;100135.80;3560922;81;99184;-85
2022/01/08 01:19:56;;;;;;;27.17;14.73;;;;;;;0.62;100.00;100135.22;3569576;80;99622;-85
2022/01/08 01:25:03;;;;;;;27.37;15.20;;;;;;;0.63;100.00;100127.36;3576023;81;99681;-86
2022/01/08 01:30:15;;;;;;;26.37;14.90;;;;;;;0.63;100.00;100134.14;3584710;80;98657;-86
2022/01/08 01:51:12;;;;;;;29.10;15.95;;;;;;;0.69;100.00;100126.09;3570128;81;98929;-87
2022/01/08 01:56:19;;;;;;;27.90;15.83;;;;;;;0.70;100.00;100114.14;3546132;80;98214;-87
2022/01/08 02:01:20;;;;;;;32.67;16.47;;;;;;;0.69;100.00;100117.96;3492504;83;99149;-85
2022/01/08 02:06:21;;;;;;;29.87;16.00;;;;;;;0.70;100.00;100110.07;3493467;81;98981;-87
2022/01/08 02:11:21;;;;;;;27.60;16.07;;;;;;;0.72;100.00;100114.59;3466859;83;98878;-86
2022/01/08 02:16:22;;;;;;;31.20;16.90;;;;;;;0.72;100.00;100102.41;3486603;80;97990;-86
2022/01/08 02:21:26;;;;;;;31.47;17.33;;;;;;;0.75;100.00;100087.44;3529081;82;99088;-87
2022/01/08 02:26:26;;;;;;;31.17;16.87;;;;;;;0.76;100.00;100093.09;3462736;83;99156;-86
2022/01/08 02:31:27;;;;;;;29.32;17.02;;;;;;;0.76;100.00;100097.95;3470004;83;98771;-86
2022/01/08 02:36:28;;;;;;;29.70;16.43;;;;;;;0.77;100.00;100091.42;3534685;82;99350;-86
2022/01/08 02:41:29;;;;;;;33.20;18.13;;;;;;;0.78;100.00;100079.46;3535570;82;98728;-89
2022/01/08 02:46:30;;;;;;;32.60;17.03;;;;;;;0.80;100.00;100081.86;3502580;83;98941;-87
2022/01/08 02:51:33;;;;;;;31.87;17.20;;;;;;;0.81;100.00;100075.31;3504676;80;99453;-86
2022/01/08 02:56:43;;;;;;;31.00;17.57;;;;;;;0.80;100.00;100065.61;3532767;82;99450;-86
2022/01/08 03:01:45;;;;;;;33.60;17.00;;;;;;;0.82;100.00;100064.75;3563869;81;99373;-86
2022/01/08 03:06:47;;;;;;;28.07;15.53;;;;;;;0.81;100.00;100075.31;3551009;79;99150;-86
2022/01/08 03:11:47;;;;;;;32.93;16.93;;;;;;;0.80;100.00;100062.35;3537152;81;97571;-87
2022/01/08 03:16:48;;;;;;;30.57;18.40;;;;;;;0.78;100.00;100060.50;3532254;81;98907;-86
2022/01/08 03:21:53;;;;;;;32.83;18.17;;;;;;;0.78;100.00;100048.89;3549552;80;98711;-84
2022/01/08 03:26:53;;;;;;;31.83;16.83;;;;;;;0.78;100.00;100049.67;3475807;82;99123;-85
2022/01/08 03:31:55;;;;;;;36.27;17.53;;;;;;;0.78;100.00;100062.44;3533380;81;99009;-86
2022/01/08 03:36:57;;;;;;;29.17;15.87;;;;;;;0.76;100.00;100053.27;3524127;82;99381;-86
2022/01/08 03:41:58;;;;;;;29.42;15.78;;;;;;;0.77;100.00;100046.73;3610901;80;98588;-85
2022/01/08 03:47:22;;;;;;;27.47;14.33;;;;;;;0.77;100.00;100042.67;3610090;80;99119;-87
2022/01/08 03:52:03;;;;;;;27.63;14.80;;;;;;;0.76;100.00;100045.69;3605438;80;98649;-86
2022/01/08 03:57:05;;;;;;;27.73;15.18;;;;;;;0.75;100.00;100035.98;3578778;81;99016;-86
2022/01/08 04:02:06;;;;;;;27.10;14.63;;;;;;;0.74;100.00;100036.56;3601343;80;99006;-85
2022/01/08 04:07:10;;;;;;;25.93;14.83;;;;;;;0.73;100.00;100023.33;3598871;79;99046;-84
2022/01/08 04:12:10;;;;;;;27.85;13.40;;;;;;;0.73;100.00;100018.69;3563262;81;98790;-86
2022/01/08 04:17:12;;;;;;;25.37;13.00;;;;;;;0.71;100.00;100025.00;3536028;82;99203;-85
2022/01/08 04:22:13;;;;;;;29.87;15.00;;;;;;;0.72;100.00;100020.39;3575408;81;98979;-85
2022/01/08 04:27:15;;;;;;;27.23;14.67;;;;;;;0.73;100.00;100026.04;3586123;81;99051;-85
2022/01/08 04:32:16;;;;;;;26.07;12.85;;;;;;;0.73;100.00;100020.63;3585101;80;99248;-86
2022/01/08 04:37:17;;;;;;;28.43;14.73;;;;;;;0.71;100.00;100018.80;3589949;81;98683;-86
2022/01/08 04:42:18;;;;;;;25.63;13.47;;;;;;;0.71;100.00;100007.39;3597322;80;98562;-84
2022/01/08 04:47:19;;;;;;;26.03;14.13;;;;;;;0.70;100.00;99994.17;3541086;82;99065;-85
2022/01/08 04:52:19;;;;;;;27.80;13.00;;;;;;;0.68;100.00;99997.22;3571273;81;98776;-85
2022/01/08 04:57:20;;;;;;;26.33;13.20;;;;;;;0.68;100.00;99993.70;3571344;81;98967;-86
2022/01/08 05:02:21;;;;;;;28.07;13.77;;;;;;;0.66;100.00;99991.89;3603697;81;99161;-85
2022/01/08 05:07:22;;;;;;;27.73;13.63;;;;;;;0.66;100.00;99994.60;3595848;80;98909;-85
2022/01/08 05:12:23;;;;;;;26.93;13.93;;;;;;;0.65;100.00;99995.15;3615096;80;98681;-85
2022/01/08 05:17:29;;;;;;;29.07;15.03;;;;;;;0.64;100.00;99994.92;3545902;82;98769;-85
2022/01/08 05:22:29;;;;;;;22.48;13.20;;;;;;;0.64;100.00;99996.27;3506905;81;98504;-85
2022/01/08 05:27:30;;;;;;;27.27;14.23;;;;;;;0.64;100.00;99990.86;3518793;82;99222;-85
2022/01/08 05:32:31;;;;;;;26.50;14.70;;;;;;;0.63;100.00;100000.10;3471073;83;99248;-85
2022/01/08 05:37:32;;;;;;;29.33;13.87;;;;;;;0.63;100.00;99993.33;3492580;82;99342;-86
2022/01/08 05:42:33;;;;;;;29.07;15.53;;;;;;;0.65;100.00;99997.05;3480491;81;98876;-84
2022/01/08 05:47:34;;;;;;;27.70;14.90;;;;;;;0.65;100.00;99999.20;3538850;82;26217;-85
2022/01/08 05:52:36;;;;;;;27.73;14.80;;;;;;;0.66;100.00;99999.44;3526286;81;98597;-85
2022/01/08 05:57:37;;;;;;;25.93;14.30;;;;;;;0.66;100.00;100000.80;3482831;83;98022;-85
2022/01/08 06:02:38;;;;;;;30.03;13.60;;;;;;;0.64;100.00;100003.04;3533676;82;99059;-84
2022/01/08 06:07:39;;;;;;;28.27;14.57;;;;;;;0.64;100.00;100010.36;3552194;82;99504;-85
2022/01/08 06:12:39;;;;;;;27.40;14.30;;;;;;;0.63;100.00;100010.93;3536905;81;98778;-86
2022/01/08 06:17:41;;;;;;;27.30;13.67;;;;;;;0.62;100.00;100023.43;3558180;81;25903;-85
2022/01/08 06:22:42;;;;;;;27.87;14.27;;;;;;;0.61;100.00;100010.44;3527093;81;121819;-84
2022/01/08 06:27:43;;;;;;;28.67;15.37;;;;;;;0.59;100.00;100018.09;3541186;81;99140;-85
2022/01/08 06:32:43;;;;;;;28.40;15.60;;;;;;;0.60;100.00;100010.78;3503349;82;98794;-85
2022/01/08 06:37:44;;;;;;;27.40;14.17;;;;;;;0.61;100.00;100015.85;3507309;82;99044;-85
2022/01/08 06:42:45;;;;;;;28.93;15.07;;;;;;;0.64;100.00;100018.48;3520285;81;99351;-87
2022/01/08 06:47:46;;;;;;;32.05;17.23;;;;;;;0.66;100.00;100019.75;3538517;83;32873;-84
2022/01/08 06:52:47;;;;;;;34.60;17.63;;;;;;;0.65;100.00;100030.35;3560068;81;98836;-86
2022/01/08 06:57:48;;;;;;;33.10;16.33;;;;;;;0.65;100.00;100033.05;3545667;82;99462;-86
2022/01/08 07:02:49;;;;;;;32.10;16.30;;;;;;;0.65;100.00;100032.25;3536684;82;99407;-84
2022/01/08 07:07:50;;;;;;;33.33;15.90;;;;;;;0.62;100.00;100032.33;3542830;82;99072;-86
2022/01/08 07:12:51;;;;;;;33.93;16.33;;;;;;;0.64;100.00;100034.18;3535249;82;99295;-85
2022/01/08 07:17:52;;;;;;;27.50;14.95;;;;;;;0.64;100.00;100045.56;3568292;82;30268;-84
2022/01/08 07:22:54;;;;;;;27.10;13.78;;;;;;;0.66;100.00;100045.47;3532393;82;99100;-86
2022/01/08 07:27:55;;;;;;;28.10;16.60;;;;;;;0.67;100.00;100040.29;3524892;82;98943;-85
2022/01/08 07:32:55;;;;;;;33.60;17.17;;;;;;;0.65;100.00;100033.60;3529858;82;99101;-85
2022/01/08 07:37:56;;;;;;;34.50;14.93;;;;;;;0.63;100.00;100040.72;3532639;82;98706;-84
2022/01/08 07:42:58;;;;;;;30.27;13.80;;;;;;;0.64;100.00;100041.49;3529678;82;99038;-84
2022/01/08 07:48:01;;;;;;;30.90;15.15;;;;;;;0.61;100.00;100040.22;3545678;82;31646;-85
2022/01/08 07:53:02;;;;;;;27.30;14.67;;;;;;;0.59;100.00;100040.30;3535831;82;98941;-85
2022/01/08 07:58:03;;;;;;;25.20;13.50;;;;;;;0.56;100.00;100034.19;3499495;82;99336;-86
2022/01/08 08:03:04;;;;;;;29.83;15.87;;;;;;;0.53;100.00;100027.50;3502110;83;99329;-85
2022/01/08 08:08:04;;;;;;;27.13;14.07;;;;;;;0.52;100.00;100024.56;3462427;82;99329;-85
2022/01/08 08:13:05;;;;;;;28.07;14.30;;;;;;;0.53;100.00;100021.28;3422089;84;99873;-86
2022/01/08 08:18:06;;;;;;;32.80;15.63;;;;;;;0.58;100.00;100028.69;3499104;82;99068;-86
2022/01/08 08:23:08;;;;;;;30.80;15.57;;;;;;;0.61;100.00;100024.55;3497669;82;99166;-86
2022/01/08 08:28:09;;;;;;;37.50;17.00;;;;;;;0.64;100.00;100024.70;3502026;82;99598;-86
2022/01/08 08:33:12;;;;;;;33.23;18.20;;;;;;;0.68;100.00;100024.85;3508492;82;99074;-86
2022/01/08 08:38:12;;;;;;;35.73;19.02;;;;;;;0.73;100.00;100034.16;3502630;82;99128;-85
2022/01/08 08:43:13;;;;;;;37.27;19.20;;;;;;;0.77;100.00;100031.05;3507042;82;99008;-85
2022/01/08 08:48:15;;;;;;;36.70;17.63;;;;;;;0.82;100.00;100024.89;3495629;82;98941;-85
2022/01/08 08:53:16;;;;;;;33.40;17.90;;;;;;;0.86;100.00;100035.33;3504846;82;98907;-85
2022/01/08 08:58:17;;;;;;;37.53;18.90;;;;;;;0.88;100.00;100037.15;3511739;82;99243;-85
2022/01/08 09:03:20;;;;;;;37.23;18.33;;;;;;;0.89;100.00;100039.31;3505481;82;99341;-86
2022/01/08 09:08:23;;;;;;;36.23;17.87;;;;;;;0.87;100.00;100038.27;3537849;82;99089;-86
2022/01/08 09:13:25;;;;;;;39.00;19.83;;;;;;;0.85;100.00;100025.62;3541954;82;99460;-86
2022/01/08 09:18:26;;;;;;;36.42;19.92;;;;;;;0.82;100.00;100036.31;3534275;82;99105;-85
2022/01/08 09:23:27;;;;;;;34.87;19.17;;;;;;;0.80;100.00;100043.94;3543675;82;99133;-85
2022/01/08 09:28:29;;;;;;;36.13;20.02;;;;;;;0.81;100.00;100049.59;3533287;82;99241;-86
2022/01/08 09:33:32;;;;;;;37.07;21.33;;;;;;;0.81;100.00;100051.75;3528616;82;98985;-85
2022/01/08 09:38:35;;;;;;;35.95;19.75;;;;;;;0.91;100.00;100043.84;3530488;82;99112;-85
2022/01/08 09:43:37;;;;;;;40.05;20.35;;;;;;;1.06;100.00;100041.97;3567302;80;99125;-85
2022/01/08 09:48:38;;;;;;;36.65;18.82;;;;;;;1.20;100.00;100036.58;3525325;81;99458;-84
2022/01/08 09:53:39;;;;;;;38.00;21.33;;;;;;;1.36;100.00;100047.67;3528494;83;31716;-84
2022/01/08 09:58:40;;;;;;;37.37;20.77;;;;;;;1.50;100.00;100041.48;3449376;83;99456;-85
2022/01/08 10:03:44;;;;;;;33.93;19.00;;;;;;;1.59;100.00;100043.60;3453716;84;99086;-84
2022/01/08 10:08:45;;;;;;;39.23;20.60;;;;;;;1.64;100.00;100033.34;3407666;84;99436;-85
2022/01/08 10:13:48;;;;;;;38.20;19.03;;;;;;;1.70;100.00;100022.55;3405646;85;99543;-84
2022/01/08 10:18:49;;;;;;;45.53;21.00;;;;;;;1.72;100.00;100023.03;3400189;84;99143;-85
2022/01/08 10:23:55;;;;;;;40.53;20.67;;;;;;;1.73;100.00;100020.55;3418783;85;32387;-86
2022/01/08 10:28:59;;;;;;;33.10;17.77;;;;;;;1.76;100.00;100015.80;3448458;84;98979;-84
2022/01/08 10:34:11;;;;;;;35.40;19.47;;;;;;;1.82;100.00;100010.99;3456761;84;98893;-83
2022/01/08 10:39:29;;;;;;;39.80;20.75;;;;;;;1.81;100.00;100006.12;3450725;84;99412;-85
2022/01/08 10:44:33;;;;;;;40.33;21.10;;;;;;;1.84;100.00;100002.76;3445341;83;99335;-84
2022/01/08 10:49:47;;;;;;;36.65;19.92;;;;;;;1.91;100.00;99988.09;3462346;83;99115;-86
2022/01/08 10:54:58;;;;;;;36.83;20.97;;;;;;;1.96;100.00;99991.98;3468153;84;99311;-86
2022/01/08 10:59:59;;;;;;;38.80;19.23;;;;;;;2.02;100.00;99990.65;3475367;83;98509;-86
2022/01/08 11:05:06;;;;;;;36.30;18.40;;;;;;;2.10;100.00;99984.38;3476842;83;99297;-86
2022/01/08 11:10:16;;;;;;;36.58;20.08;;;;;;;2.12;100.00;99982.11;3411567;84;99069;-85
2022/01/08 11:20:28;;;;;;;38.40;20.50;;;;;;;2.21;100.00;99992.35;3465090;83;99314;-85
2022/01/08 11:25:36;;;;;;;43.98;22.35;;;;;;;2.24;100.00;99994.38;3480910;83;98936;-85
2022/01/08 11:30:41;;;;;;;36.97;19.73;;;;;;;2.26;100.00;99992.70;3478080;84;99436;-85
2022/01/08 11:35:45;;;;;;;40.60;21.93;;;;;;;2.23;100.00;99988.73;3485153;82;25999;-85
2022/01/08 11:40:50;;;;;;;43.73;23.03;;;;;;;2.23;100.00;99986.02;3482461;83;99309;-85
2022/01/08 11:46:00;;;;;;;42.17;22.57;;;;;;;2.23;100.00;99981.13;3431673;84;99447;-85
2022/01/08 11:51:04;;;;;;;39.83;20.63;;;;;;;2.19;100.00;99984.31;3467274;83;99347;-84
2022/01/08 11:56:06;;;;;;;39.07;21.77;;;;;;;2.18;100.00;99980.78;3508787;83;99357;-85
2022/01/08 12:01:14;;;;;;;51.30;25.43;;;;;;;2.18;100.00;99977.30;3518014;82;99314;-85
2022/01/08 12:06:31;;;;;;;45.60;24.40;;;;;;;2.18;100.00;99975.35;3530712;82;31085;-84
2022/01/08 12:11:32;;;;;;;46.70;24.43;;;;;;;2.23;100.00;99983.30;3536526;82;98626;-84
2022/01/08 12:16:41;;;;;;;45.43;23.47;;;;;;;2.26;100.00;99973.70;3537014;82;99231;-84
2022/01/08 12:21:42;;;;;;;44.45;24.52;;;;;;;2.27;100.00;99976.09;3528871;82;98885;-84
2022/01/08 12:26:43;;;;;;;40.87;21.10;;;;;;;2.29;100.00;99983.33;3526824;82;98954;-84
2022/01/08 12:31:48;;;;;;;45.63;23.67;;;;;;;2.36;100.00;99976.01;3560167;81;98815;-84
2022/01/08 12:36:58;;;;;;;42.30;22.17;;;;;;;2.44;100.00;99983.27;3534680;82;106137;-84
2022/01/08 12:42:24;;;;;;;47.03;22.77;;;;;;;2.46;100.00;99972.88;3561140;81;98848;-84
2022/01/08 12:47:50;;;;;;;44.13;18.57;;;;;;;2.47;100.00;99963.60;3513116;82;98672;-85
2022/01/08 12:53:19;;;;;;;45.07;22.40;;;;;;;2.45;100.00;99961.77;3523568;82;98822;-84
2022/01/08 12:58:29;;;;;;;47.43;23.20;;;;;;;2.39;100.00;99961.20;3539195;82;99085;-84
2022/01/08 13:03:46;;;;;;;45.13;23.87;;;;;;;2.37;100.00;99968.09;3541769;82;99245;-84
2022/01/08 13:08:52;;;;;;;49.18;25.32;;;;;;;2.34;100.00;99968.73;3534975;82;99259;-84
2022/01/08 13:13:59;;;;;;;50.33;24.47;;;;;;;2.29;100.00;99965.67;3540505;82;99245;-85
2022/01/08 13:19:13;;;;;;;48.27;26.20;;;;;;;2.28;100.00;99970.88;3530843;82;98989;-85
2022/01/08 13:24:19;;;;;;;50.10;24.43;;;;;;;2.25;100.00;99964.75;3543696;82;28903;-85
2022/01/08 13:29:39;;;;;;;50.67;25.30;;;;;;;2.19;100.00;99955.22;3525440;82;99195;-84
2022/01/08 13:34:49;;;;;;;51.13;27.13;;;;;;;2.18;100.00;99944.14;3567222;81;99145;-83
2022/01/08 13:39:55;;;;;;;56.28;27.37;;;;;;;2.15;100.00;99952.16;3519733;82;99281;-84
2022/01/08 13:45:13;;;;;;;60.87;29.20;;;;;;;2.12;100.00;99954.16;3560361;81;99144;-84
2022/01/08 13:50:36;;;;;;;56.50;28.37;;;;;;;2.08;100.00;99948.61;3522332;82;98849;-84
2022/01/08 13:55:46;;;;;;;49.40;26.00;;;;;;;2.02;100.00;99934.24;3530310;82;99260;-83
2022/01/08 14:00:51;;;;;;;48.40;25.70;;;;;;;2.01;100.00;99933.44;3519122;82;98975;-83
2022/01/08 14:05:55;;;;;;;48.60;25.03;;;;;;;1.98;100.00;99954.44;3547917;81;26465;-83
2022/01/08 14:11:01;;;;;;;52.25;25.85;;;;;;;1.94;100.00;99949.47;3526247;82;99243;-83
2022/01/08 14:16:09;;;;;;;50.17;24.27;;;;;;;1.89;100.00;99936.09;3505102;82;98764;-84
2022/01/08 14:21:19;;;;;;;52.40;26.07;;;;;;;1.87;100.00;99929.41;3535519;82;99476;-85
2022/01/08 14:26:26;;;;;;;51.60;26.60;;;;;;;1.86;100.00;99925.11;3532542;82;99348;-83
2022/01/08 14:31:30;;;;;;;48.47;23.23;;;;;;;1.83;100.00;99929.83;3537351;82;99399;-83
2022/01/08 14:36:58;;;;;;;56.33;26.68;;;;;;;1.83;100.00;99925.77;3530698;82;32539;-84
2022/01/08 14:42:13;;;;;;;54.17;27.63;;;;;;;1.80;100.00;99925.86;3505933;82;98313;-83
2022/01/08 14:47:14;;;;;;;57.17;28.03;;;;;;;1.80;100.00;99925.09;3540876;82;98784;-83
2022/01/08 14:52:20;;;;;;;58.67;28.07;;;;;;;1.76;100.00;99927.64;3534295;81;99139;-83
2022/01/08 14:57:18;;;;;;;53.90;28.73;;;;;;;1.75;100.00;99926.64;3495452;82;98939;-83
2022/01/08 15:02:19;;;;;;;54.30;29.23;;;;;;;1.71;100.00;99931.91;3476678;83;99207;-83
2022/01/08 15:07:20;;;;;;;57.67;32.57;;;;;;;1.71;100.00;99929.77;3467506;84;98864;-83
2022/01/08 15:12:21;;;;;;;62.43;31.03;;;;;;;1.59;100.00;99911.50;3443163;84;98366;-83
2022/01/08 15:17:22;;;;;;;60.03;28.93;;;;;;;1.72;100.00;99928.64;3482165;82;99024;-83
2022/01/08 15:22:26;;;;;;;56.73;29.30;;;;;;;1.71;100.00;99927.05;3441783;84;98834;-83
2022/01/08 15:27:27;;;;;;;57.63;29.83;;;;;;;1.70;100.00;99922.19;3447706;84;98893;-84
2022/01/08 15:32:28;;;;;;;64.93;31.50;;;;;;;1.68;100.00;99916.85;3446240;84;99096;-84
2022/01/08 15:37:29;;;;;;;58.20;30.57;;;;;;;1.64;100.00;99914.02;3448711;83;99015;-84
2022/01/08 15:42:30;;;;;;;54.33;27.70;;;;;;;1.62;100.00;99910.05;3460345;84;98412;-84
2022/01/08 15:47:31;;;;;;;60.17;28.63;;;;;;;1.60;100.00;99900.88;3460273;84;98967;-85
2022/01/08 15:52:32;;;;;;;55.87;28.37;;;;;;;1.58;100.00;99899.06;3441645;84;98751;-85
2022/01/08 15:57:32;;;;;;;63.13;28.97;;;;;;;1.57;100.00;99892.61;3465715;84;98817;-85
2022/01/08 16:02:33;;;;;;;54.97;27.83;;;;;;;1.55;100.00;99885.38;3452149;84;99263;-85
2022/01/08 16:07:38;;;;;;;56.28;26.87;;;;;;;1.54;100.00;99887.86;3457958;84;98838;-84
2022/01/08 16:12:39;;;;;;;53.10;26.37;;;;;;;1.50;100.00;99883.66;3451453;84;98897;-85
2022/01/08 16:17:40;;;;;;;51.90;26.47;;;;;;;1.50;100.00;99886.92;3457995;83;98665;-85
2022/01/08 16:22:42;;;;;;;63.07;31.70;;;;;;;1.36;100.00;99856.55;3451584;83;99078;-84
2022/01/08 16:27:43;;;;;;;56.70;27.73;;;;;;;1.36;100.00;99856.55;3463955;84;98941;-86
2022/01/08 16:32:44;;;;;;;50.77;26.93;;;;;;;1.46;100.00;99875.95;3450499;83;98830;-85
2022/01/08 16:37:45;;;;;;;57.77;28.90;;;;;;;1.45;100.00;99880.34;3472061;83;99186;-86
2022/01/08 16:42:46;;;;;;;52.87;26.90;;;;;;;1.41;100.00;99878.86;3436128;83;98807;-85
2022/01/08 16:47:49;;;;;;;64.13;29.63;;;;;;;1.42;100.00;99876.95;3430294;84;99368;-85
2022/01/08 16:52:50;;;;;;;56.00;27.67;;;;;;;1.39;100.00;99862.14;3457406;82;98918;-85
2022/01/08 16:57:51;;;;;;;55.17;28.30;;;;;;;1.39;100.00;99874.89;3503541;81;98930;-86
2022/01/08 17:02:52;;;;;;;54.30;25.87;;;;;;;1.37;100.00;99863.01;3448370;83;99073;-86
2022/01/08 17:07:53;;;;;;;51.07;26.27;;;;;;;1.36;100.00;99865.49;3466077;82;98941;-86
2022/01/08 17:12:54;;;;;;;48.97;23.47;;;;;;;1.36;100.00;99868.75;3523874;82;98582;-86
2022/01/08 17:17:56;;;;;;;54.27;27.13;;;;;;;1.35;100.00;99856.33;3522663;81;98517;-86
2022/01/08 17:22:57;;;;;;;47.13;23.98;;;;;;;1.35;100.00;99854.97;3509905;81;98653;-86
2022/01/08 17:27:58;;;;;;;50.67;23.77;;;;;;;1.33;100.00;99851.81;3517873;82;99281;-86
2022/01/08 17:32:59;;;;;;;54.87;27.07;;;;;;;1.31;100.00;99848.06;3474284;82;99296;-87
2022/01/08 17:38:00;;;;;;;50.30;26.07;;;;;;;1.26;100.00;99838.00;3465808;82;98981;-87
2022/01/08 17:43:02;;;;;;;56.45;27.37;;;;;;;1.28;100.00;99845.23;3444873;82;99257;-87
2022/01/08 17:48:05;;;;;;;52.87;28.43;;;;;;;1.25;100.00;99842.61;3541870;82;34925;-86
2022/01/08 17:53:07;;;;;;;57.33;28.57;;;;;;;1.25;100.00;99839.09;3523529;82;98797;-86
2022/01/08 17:58:08;;;;;;;57.33;28.30;;;;;;;1.26;100.00;99837.42;3511241;82;108279;-85
2022/01/08 18:03:11;;;;;;;59.43;27.47;;;;;;;1.28;100.00;99838.45;3458908;84;99040;-85
2022/01/08 18:08:12;;;;;;;59.33;28.73;;;;;;;1.28;100.00;99841.16;3405524;83;99245;-86
2022/01/08 18:13:14;;;;;;;54.27;29.97;;;;;;;1.29;100.00;99830.00;3456909;83;99487;-86
2022/01/08 18:18:15;;;;;;;64.70;29.57;;;;;;;1.31;100.00;99830.45;3445796;84;99063;-85
2022/01/08 18:23:16;;;;;;;57.87;27.13;;;;;;;1.31;100.00;99818.83;3450264;84;98754;-86
2022/01/08 18:28:18;;;;;;;49.83;24.80;;;;;;;1.32;100.00;99813.05;3440296;83;99207;-85
2022/01/08 18:33:19;;;;;;;51.87;25.93;;;;;;;1.34;100.00;99810.02;3444123;84;99717;-85
2022/01/08 18:38:20;;;;;;;58.93;26.80;;;;;;;1.35;100.00;99811.05;3443337;84;98866;-87
2022/01/08 18:43:25;;;;;;;49.60;24.47;;;;;;;1.38;100.00;99806.89;3459821;83;98916;-85
2022/01/08 18:48:26;;;;;;;56.53;27.37;;;;;;;1.40;100.00;99804.63;3445266;84;98872;-84
2022/01/08 18:53:27;;;;;;;63.67;32.50;;;;;;;1.39;100.00;99803.85;3439553;84;99481;-85
2022/01/08 18:58:28;;;;;;;53.07;26.93;;;;;;;1.43;100.00;99783.64;3467107;82;99175;-85
2022/01/08 19:03:29;;;;;;;53.30;25.67;;;;;;;1.43;100.00;99783.06;3544502;82;98892;-86
2022/01/08 19:08:31;;;;;;;60.13;29.07;;;;;;;1.45;100.00;99778.67;3530868;82;98850;-85
2022/01/08 19:13:33;;;;;;;57.40;27.90;;;;;;;1.45;100.00;99786.80;3538180;82;98882;-86
2022/01/08 19:18:34;;;;;;;52.97;26.83;;;;;;;1.43;100.00;99779.00;3552506;81;98507;-87
2022/01/08 19:23:37;;;;;;;61.90;30.40;;;;;;;1.42;100.00;99772.00;3533411;82;99026;-85
2022/01/08 19:28:39;;;;;;;55.58;28.17;;;;;;;1.43;100.00;99760.60;3515287;82;98803;-86
2022/01/08 19:33:40;;;;;;;71.20;32.80;;;;;;;1.41;100.00;99760.13;3542339;82;99215;-86
2022/01/08 19:38:41;;;;;;;77.60;36.50;;;;;;;1.37;100.00;99751.09;3524060;82;99225;-86
2022/01/08 19:43:42;;;;;;;70.10;32.30;;;;;;;1.38;100.00;99749.37;3530579;82;99310;-86
2022/01/08 19:48:43;;;;;;;62.00;28.50;;;;;;;1.34;100.00;99744.41;3539720;82;98482;-86
2022/01/08 19:53:44;;;;;;;63.07;32.10;;;;;;;1.33;100.00;99732.55;3545655;82;98949;-86
2022/01/08 19:58:45;;;;;;;62.50;29.50;;;;;;;1.31;100.00;99732.09;3520017;82;98781;-85
2022/01/08 20:03:49;;;;;;;56.37;28.03;;;;;;;1.24;100.00;99722.33;3500169;82;98896;-87
2022/01/08 20:08:49;;;;;;;57.30;28.43;;;;;;;1.18;100.00;99717.69;3498304;82;99200;-86
2022/01/08 20:13:50;;;;;;;55.67;26.87;;;;;;;1.09;100.00;99712.12;3503888;82;99213;-87
2022/01/08 20:18:53;;;;;;;54.97;25.57;;;;;;;0.99;100.00;99712.52;3483371;82;98738;-85
2022/01/08 20:23:54;;;;;;;52.87;25.17;;;;;;;0.97;100.00;99693.88;3501197;82;98939;-86
2022/01/08 20:28:55;;;;;;;65.23;31.33;;;;;;;0.95;100.00;99688.56;3495731;82;98934;-85
2022/01/08 20:33:56;;;;;;;56.33;26.50;;;;;;;0.92;100.00;99679.73;3499757;82;98838;-86
2022/01/08 20:38:56;;;;;;;46.23;23.93;;;;;;;0.90;100.00;99673.86;3497926;82;98894;-84
2022/01/08 20:43:57;;;;;;;58.37;27.40;;;;;;;0.90;100.00;99662.48;3504317;82;98970;-84
2022/01/08 20:48:59;;;;;;;55.63;28.50;;;;;;;0.92;100.00;99663.48;3484667;83;98565;-84
2022/01/08 20:54:00;;;;;;;53.70;24.67;;;;;;;0.87;100.00;99652.29;3497811;82;98515;-85
2022/01/08 20:59:01;;;;;;;51.87;24.73;;;;;;;0.82;100.00;99647.07;3537058;81;98919;-85
2022/01/08 21:04:04;;;;;;;53.43;25.60;;;;;;;0.80;100.00;99645.81;3553930;81;98966;-84
2022/01/08 21:09:05;;;;;;;53.52;26.20;;;;;;;0.80;100.00;99635.80;3588647;80;99337;-85
2022/01/08 21:14:06;;;;;;;47.13;24.75;;;;;;;0.82;100.00;99633.53;3588324;80;98979;-85
2022/01/08 21:19:07;;;;;;;46.37;23.00;;;;;;;0.81;100.00;99636.02;3566323;80;98926;-84
2022/01/08 21:24:08;;;;;;;53.80;28.07;;;;;;;0.79;100.00;99630.15;3565016;81;35863;-85
2022/01/08 21:29:09;;;;;;;53.47;24.90;;;;;;;0.78;100.00;99623.70;3556339;80;98844;-85
2022/01/08 21:34:10;;;;;;;53.67;26.70;;;;;;;0.75;100.00;99615.68;3552755;81;98921;-84
2022/01/08 21:39:21;;;;;;;49.70;24.47;;;;;;;0.77;100.00;99617.48;3559527;81;98841;-85
2022/01/08 21:44:19;;;;;;;47.30;22.10;;;;;;;0.78;100.00;99612.87;3560450;79;98868;-85
2022/01/08 21:49:20;;;;;;;50.17;25.07;;;;;;;0.79;100.00;99603.06;3554881;81;98771;-85
2022/01/08 21:54:22;;;;;;;45.90;24.77;;;;;;;0.84;100.00;99608.28;3566559;81;34837;-84
2022/01/08 21:59:23;;;;;;;51.33;25.10;;;;;;;0.86;100.00;99604.67;3522267;80;99014;-85
2022/01/08 22:04:24;;;;;;;53.43;25.70;;;;;;;0.88;100.00;99586.73;3531406;82;98754;-84
2022/01/08 22:09:25;;;;;;;48.63;27.13;;;;;;;0.90;100.00;99579.06;3558702;80;98814;-84
2022/01/08 22:14:27;;;;;;;56.93;29.93;;;;;;;0.90;100.00;99579.06;3567856;80;98797;-83
2022/01/08 22:19:28;;;;;;;60.83;30.63;;;;;;;0.91;100.00;99581.99;3571779;81;99598;-82
2022/01/08 22:24:29;;;;;;;59.40;30.88;;;;;;;0.89;100.00;99582.31;3570506;81;35387;-83
2022/01/08 22:29:30;;;;;;;61.60;31.03;;;;;;;0.87;100.00;99575.65;3574159;78;98692;-84
2022/01/08 22:34:31;;;;;;;57.53;30.00;;;;;;;0.87;100.00;99566.97;3574976;81;98634;-83
2022/01/08 22:39:32;;;;;;;59.07;30.00;;;;;;;0.88;100.00;99559.08;3577087;81;98855;-83
2022/01/08 22:44:33;;;;;;;63.27;30.93;;;;;;;0.90;100.00;99558.75;3577223;80;98847;-83
2022/01/08 22:49:33;;;;;;;55.80;27.47;;;;;;;0.89;100.00;99550.40;3524400;82;98883;-83
2022/01/08 22:54:35;;;;;;;49.63;24.90;;;;;;;0.86;100.00;99548.34;3525080;82;35038;-83
2022/01/08 22:59:35;;;;;;;47.73;25.35;;;;;;;0.80;100.00;99546.97;3523459;81;99103;-84
2022/01/08 23:04:37;;;;;;;46.33;23.80;;;;;;;0.80;100.00;99537.49;3453087;82;98681;-83
2022/01/08 23:09:40;;;;;;;48.80;25.25;;;;;;;0.82;100.00;99534.69;3536987;80;98880;-83
2022/01/08 23:14:41;;;;;;;50.87;26.10;;;;;;;0.84;100.00;99523.52;3508686;78;99001;-83
2022/01/08 23:19:47;;;;;;;48.67;24.13;;;;;;;0.81;100.00;99508.73;3467961;82;98915;-83
2022/01/08 23:24:45;;;;;;;41.47;21.73;;;;;;;0.82;100.00;99508.18;3498357;83;31251;-84
2022/01/08 23:29:49;;;;;;;41.13;22.50;;;;;;;0.83;100.00;99496.22;3462438;83;99504;-83